リュブリャナ の空港の天気 - METARとTAF

リュブリャナ空港 ( LJLJ / LJU ) - スロベニア リュブリャナ
飛行場実況気象(Metar)
観測時間02/05 21:30 CET (02/05 20:30 UTC)
風向・風速不定 1m/s
視程10km以上
天気現象
少しの雲 雲底高度 1010m
全天の8割程度の雲 雲底高度 6710m
気温-3℃
湿度80%
気圧1033hPa
METARLJLJ 052030Z VRB01KT 9999 FEW033 BKN220 M03/M06 Q1033 NOSIG
過去の天気等 Google飛行場航空写真 Wunderground天気予報

過去48時間のMETAR

飛行場予報(TAF)
発表時間: 2/05 18:00 CET (2/05 17:00 UTC)
予報対象時間: 5日19時 CET ~ 6日19時 CET
風向・風速東南東 3m/s
視程10km以上
少しの雲 雲底高度 910m
TAF LJLJ 051700Z 0518/0618 12005KT 9999 FEW030